McAlister, NM (88427)

12:14 PM MDT on July 22, 2014 (GMT -0600)
Tucumcari Municipal (KTCC) Elev 4065 ft | 35.18 °N, 103.60 °W | Change Station

Current weather conditions updated 21 minutes ago

Clear
Clear
87 °F
Feels Like 88 °F
N
6
Wind Variable Wind from SSW

Today is forecast to be Much Cooler than yesterday.

Today
High -- | Low -- °F
--% Chance of Precip.
Yesterday
High -- | Low -- °F
Precip. -- in
5:57 AM 8:04 PM
Waning Crescent, 16% visible
Pressure 30.02 in
Visibility 10.0 miles
Clouds Clear
Heat Index 88 °F
Dew Point 64 °F
Humidity 46%
Rainfall 0.00 in
Snow Depth Not available.
UV 12 out of 12
Pollen 4.90 out of 12
Air Quality Not available.
Flu Activity Sporadic
METAR KTCC 221753Z AUTO 21005KT 10SM CLR 31/18 A3021 RMK AO2 SLP165 T03060178 10306 20206 50004

More Conditions Fewer Conditions

Pressure 30.02 in
Visibility 10.0 miles
Clouds Clear
Heat Index 88 °F
Dew Point 64 °F
Humidity 46%
Rainfall 0.00 in
Snow Depth Not available.
UV 12 out of 12
Pollen 4.90 out of 12
Air Quality Not available.
Flu Activity Sporadic
METAR KTCC 221753Z AUTO 21005KT 10SM CLR 31/18 A3021 RMK AO2 SLP165 T03060178 10306 20206 50004

More Conditions Fewer Conditions

10-Day Weather Forecast

LIGHTNING

Thunderstorms are forecast for your area. Cloud conditions might be right for producing strikes in the next few days, though lightning itself cannot be forecasted.

Lightning is a visible electrical discharge produced by a thunderstorm, based on the build up of oppositely charged particles within a cloud and from cloud to ground.

Know how to stay safe in a lightning storm.

Check out these Lightning WunderPhotos!

Almanac

Astronomy

Jul. 22, 2014 Rise Set
Actual Time 5:57 AM MDT 8:04 PM MDT
Civil Twilight 5:28 AM MDT 8:32 PM MDT
Nautical Twilight 4:54 AM MDT 9:07 PM MDT
Astronomical Twilight 4:16 AM MDT 9:44 PM MDT
Moon 2:30 AM MDT 4:45 PM MDT
Length of Visible Light 15h 03m
Length of Day
14h 07m
Tomorrow will be 1m 21s shorter.
Waning Crescent, 16% of the Moon is Illuminated
Today
Waning Crescent
Jul 26
New
Aug 3
First Quarter
Aug 10
Full
Aug 17
Last Quarter

Today's Extremes

State Highs State Lows

Community

WunderPhotos

Upload Photos

1,736,315 photos uploaded!

Nearby

Snow Depth

Station Depth Elevation
Wesner Springs 0 in 11120 ft
Santa Fe 1 in 11445 ft
Gallegos Peak 0 in 9800 ft
Sierra Blanca 0 in 10280 ft
Silver Creek Divide 0 in 9000 ft

Earthquake Activity

City Distance Mag. Time & Date
No recent earthquake activity has been reported nearby.
Minimum magnitude displayed is 2.5.

Coastal Water Temperatures

Place Temperature
No Stations Reporting

Nearby Weather Stations

There are no personal weather stations in this area.